sensor_id;sensor_type;location;lat;lon;timestamp;pressure;altitude;pressure_sealevel;temperature;humidity
55755;BME280;41674;52.290;-1.474;2023-05-29T00:01:02;102216.75;;;11.23;72.53
55755;BME280;41674;52.290;-1.474;2023-05-29T00:03:31;102212.55;;;11.94;69.99
55755;BME280;41674;52.290;-1.474;2023-05-29T00:06:02;102219.25;;;11.30;72.48
55755;BME280;41674;52.290;-1.474;2023-05-29T00:08:30;102219.96;;;11.47;71.12
55755;BME280;41674;52.290;-1.474;2023-05-29T00:11:00;102221.23;;;11.68;70.25
55755;BME280;41674;52.290;-1.474;2023-05-29T00:13:30;102223.69;;;11.28;71.19
55755;BME280;41674;52.290;-1.474;2023-05-29T00:15:59;102225.85;;;10.94;71.36
55755;BME280;41674;52.290;-1.474;2023-05-29T00:18:29;102230.55;;;11.27;71.05
55755;BME280;41674;52.290;-1.474;2023-05-29T00:20:59;102226.90;;;12.33;67.49
55755;BME280;41674;52.290;-1.474;2023-05-29T00:23:28;102231.35;;;11.55;69.82
55755;BME280;41674;52.290;-1.474;2023-05-29T00:25:58;102231.90;;;11.56;69.28
55755;BME280;41674;52.290;-1.474;2023-05-29T00:28:27;102236.86;;;11.47;70.18
55755;BME280;41674;52.290;-1.474;2023-05-29T00:30:57;102242.02;;;11.38;70.84
55755;BME280;41674;52.290;-1.474;2023-05-29T00:33:26;102243.93;;;10.93;71.40
55755;BME280;41674;52.290;-1.474;2023-05-29T00:35:56;102246.89;;;11.40;69.31
55755;BME280;41674;52.290;-1.474;2023-05-29T00:38:31;102246.80;;;12.07;67.37
55755;BME280;41674;52.290;-1.474;2023-05-29T00:40:55;102245.79;;;11.00;71.33
55755;BME280;41674;52.290;-1.474;2023-05-29T00:43:25;102243.45;;;10.61;72.13
55755;BME280;41674;52.290;-1.474;2023-05-29T00:45:55;102237.63;;;11.19;70.96
55755;BME280;41674;52.290;-1.474;2023-05-29T00:48:25;102241.99;;;11.15;70.62
55755;BME280;41674;52.290;-1.474;2023-05-29T00:50:54;102245.42;;;10.95;71.15
55755;BME280;41674;52.290;-1.474;2023-05-29T00:53:24;102246.82;;;11.49;69.74
55755;BME280;41674;52.290;-1.474;2023-05-29T00:55:53;102246.85;;;11.51;69.59
55755;BME280;41674;52.290;-1.474;2023-05-29T00:58:23;102241.17;;;10.68;71.80
55755;BME280;41674;52.290;-1.474;2023-05-29T01:00:53;102236.56;;;11.43;70.03
55755;BME280;41674;52.290;-1.474;2023-05-29T01:03:22;102231.90;;;10.56;70.82
55755;BME280;41674;52.290;-1.474;2023-05-29T01:05:51;102233.95;;;10.89;71.52
55755;BME280;41674;52.290;-1.474;2023-05-29T01:08:21;102231.14;;;11.20;69.21
55755;BME280;41674;52.290;-1.474;2023-05-29T01:10:52;102229.82;;;10.59;70.80
55755;BME280;41674;52.290;-1.474;2023-05-29T01:13:25;102234.34;;;11.05;68.54
55755;BME280;41674;52.290;-1.474;2023-05-29T01:15:57;102233.20;;;10.96;67.96
55755;BME280;41674;52.290;-1.474;2023-05-29T01:18:30;102237.45;;;10.43;69.85
55755;BME280;41674;52.290;-1.474;2023-05-29T01:20:55;102245.23;;;9.97;71.82
55755;BME280;41674;52.290;-1.474;2023-05-29T01:25:58;102238.32;;;10.28;71.25
55755;BME280;41674;52.290;-1.474;2023-05-29T01:28:21;102242.00;;;10.75;69.94
55755;BME280;41674;52.290;-1.474;2023-05-29T01:30:49;102242.12;;;10.75;69.70
55755;BME280;41674;52.290;-1.474;2023-05-29T01:33:17;102238.00;;;10.62;69.38
55755;BME280;41674;52.290;-1.474;2023-05-29T01:35:48;102238.33;;;11.00;68.34
55755;BME280;41674;52.290;-1.474;2023-05-29T01:38:16;102240.40;;;10.38;71.32
55755;BME280;41674;52.290;-1.474;2023-05-29T01:40:47;102241.08;;;10.84;68.77
55755;BME280;41674;52.290;-1.474;2023-05-29T01:43:16;102245.42;;;10.19;71.47
55755;BME280;41674;52.290;-1.474;2023-05-29T01:45:45;102243.90;;;10.59;69.45
55755;BME280;41674;52.290;-1.474;2023-05-29T01:48:16;102246.78;;;10.84;69.16
55755;BME280;41674;52.290;-1.474;2023-05-29T01:50:45;102254.03;;;10.20;71.38
55755;BME280;41674;52.290;-1.474;2023-05-29T01:53:14;102254.89;;;10.66;68.50
55755;BME280;41674;52.290;-1.474;2023-05-29T01:55:44;102253.98;;;10.55;69.14
55755;BME280;41674;52.290;-1.474;2023-05-29T01:58:14;102256.81;;;10.56;70.16
55755;BME280;41674;52.290;-1.474;2023-05-29T02:00:43;102254.91;;;10.37;70.62
55755;BME280;41674;52.290;-1.474;2023-05-29T02:03:14;102254.85;;;10.19;71.82
55755;BME280;41674;52.290;-1.474;2023-05-29T02:05:42;102253.61;;;10.14;72.34
55755;BME280;41674;52.290;-1.474;2023-05-29T02:08:13;102250.67;;;9.92;71.29
55755;BME280;41674;52.290;-1.474;2023-05-29T02:10:42;102249.19;;;10.23;71.81
55755;BME280;41674;52.290;-1.474;2023-05-29T02:13:12;102249.84;;;9.64;72.18
55755;BME280;41674;52.290;-1.474;2023-05-29T02:15:41;102248.91;;;10.27;71.20
55755;BME280;41674;52.290;-1.474;2023-05-29T02:18:12;102249.10;;;10.05;71.48
55755;BME280;41674;52.290;-1.474;2023-05-29T02:20:40;102249.08;;;9.29;72.41
55755;BME280;41674;52.290;-1.474;2023-05-29T02:23:09;102250.53;;;10.21;71.06
55755;BME280;41674;52.290;-1.474;2023-05-29T02:25:39;102247.43;;;9.23;72.15
55755;BME280;41674;52.290;-1.474;2023-05-29T02:28:09;102241.23;;;10.61;68.93
55755;BME280;41674;52.290;-1.474;2023-05-29T02:30:43;102241.31;;;9.96;70.07
55755;BME280;41674;52.290;-1.474;2023-05-29T02:33:08;102241.36;;;10.11;69.74
55755;BME280;41674;52.290;-1.474;2023-05-29T02:35:38;102240.59;;;10.23;69.20
55755;BME280;41674;52.290;-1.474;2023-05-29T02:38:07;102239.29;;;9.90;70.23
55755;BME280;41674;52.290;-1.474;2023-05-29T02:40:37;102241.65;;;9.90;70.00
55755;BME280;41674;52.290;-1.474;2023-05-29T02:43:09;102236.94;;;9.93;69.46
55755;BME280;41674;52.290;-1.474;2023-05-29T02:45:36;102235.60;;;9.87;66.85
55755;BME280;41674;52.290;-1.474;2023-05-29T02:48:06;102239.15;;;9.81;69.28
55755;BME280;41674;52.290;-1.474;2023-05-29T02:50:35;102235.89;;;9.95;69.36
55755;BME280;41674;52.290;-1.474;2023-05-29T02:53:05;102237.98;;;10.38;67.30
55755;BME280;41674;52.290;-1.474;2023-05-29T02:55:35;102238.54;;;10.07;67.93
55755;BME280;41674;52.290;-1.474;2023-05-29T02:58:04;102239.86;;;8.99;70.00
55755;BME280;41674;52.290;-1.474;2023-05-29T03:00:39;102236.71;;;9.93;68.10
55755;BME280;41674;52.290;-1.474;2023-05-29T03:03:04;102239.93;;;9.78;69.07
55755;BME280;41674;52.290;-1.474;2023-05-29T03:05:35;102239.71;;;9.10;72.95
55755;BME280;41674;52.290;-1.474;2023-05-29T03:08:03;102239.61;;;9.05;72.75
55755;BME280;41674;52.290;-1.474;2023-05-29T03:10:33;102236.55;;;9.66;70.42
55755;BME280;41674;52.290;-1.474;2023-05-29T03:13:02;102238.31;;;9.81;70.27
55755;BME280;41674;52.290;-1.474;2023-05-29T03:15:32;102235.13;;;9.52;71.29
55755;BME280;41674;52.290;-1.474;2023-05-29T03:18:02;102236.77;;;9.30;72.39
55755;BME280;41674;52.290;-1.474;2023-05-29T03:20:31;102236.84;;;9.42;70.30
55755;BME280;41674;52.290;-1.474;2023-05-29T03:23:01;102237.94;;;9.94;69.61
55755;BME280;41674;52.290;-1.474;2023-05-29T03:25:30;102239.45;;;9.17;70.92
55755;BME280;41674;52.290;-1.474;2023-05-29T03:28:00;102240.48;;;9.48;70.00
55755;BME280;41674;52.290;-1.474;2023-05-29T03:30:30;102239.80;;;9.83;70.23
55755;BME280;41674;52.290;-1.474;2023-05-29T03:32:59;102242.35;;;9.37;71.62
55755;BME280;41674;52.290;-1.474;2023-05-29T03:35:30;102244.68;;;8.99;73.32
55755;BME280;41674;52.290;-1.474;2023-05-29T03:38:00;102240.82;;;9.25;72.09
55755;BME280;41674;52.290;-1.474;2023-05-29T03:40:33;102237.41;;;9.08;71.83
55755;BME280;41674;52.290;-1.474;2023-05-29T03:42:58;102240.16;;;8.76;73.90
55755;BME280;41674;52.290;-1.474;2023-05-29T03:45:27;102240.04;;;9.56;70.80
55755;BME280;41674;52.290;-1.474;2023-05-29T03:47:57;102243.07;;;9.37;71.98
55755;BME280;41674;52.290;-1.474;2023-05-29T03:50:27;102246.46;;;9.27;71.95
55755;BME280;41674;52.290;-1.474;2023-05-29T03:52:56;102246.40;;;9.30;72.57
55755;BME280;41674;52.290;-1.474;2023-05-29T03:55:26;102244.61;;;9.10;72.69
55755;BME280;41674;52.290;-1.474;2023-05-29T03:57:55;102245.34;;;8.96;73.55
55755;BME280;41674;52.290;-1.474;2023-05-29T04:00:25;102243.88;;;9.14;72.38
55755;BME280;41674;52.290;-1.474;2023-05-29T04:02:55;102245.88;;;9.35;72.58
55755;BME280;41674;52.290;-1.474;2023-05-29T04:05:24;102247.57;;;9.35;72.99
55755;BME280;41674;52.290;-1.474;2023-05-29T04:07:55;102249.83;;;8.63;73.63
55755;BME280;41674;52.290;-1.474;2023-05-29T04:10:24;102254.32;;;9.39;72.63
55755;BME280;41674;52.290;-1.474;2023-05-29T04:12:53;102252.94;;;9.25;73.00
55755;BME280;41674;52.290;-1.474;2023-05-29T04:15:23;102252.24;;;9.22;72.24
55755;BME280;41674;52.290;-1.474;2023-05-29T04:17:53;102254.61;;;8.77;72.74
55755;BME280;41674;52.290;-1.474;2023-05-29T04:20:23;102254.35;;;9.18;72.44
55755;BME280;41674;52.290;-1.474;2023-05-29T04:22:52;102252.39;;;9.19;73.23
55755;BME280;41674;52.290;-1.474;2023-05-29T04:27:51;102258.38;;;9.29;72.91
55755;BME280;41674;52.290;-1.474;2023-05-29T04:30:21;102263.77;;;9.24;74.05
55755;BME280;41674;52.290;-1.474;2023-05-29T04:32:50;102265.43;;;9.20;73.46
55755;BME280;41674;52.290;-1.474;2023-05-29T04:35:20;102262.64;;;9.62;72.54
55755;BME280;41674;52.290;-1.474;2023-05-29T04:37:55;102264.17;;;9.36;72.86
55755;BME280;41674;52.290;-1.474;2023-05-29T04:40:19;102265.48;;;9.46;73.94
55755;BME280;41674;52.290;-1.474;2023-05-29T04:42:49;102268.13;;;9.48;74.07
55755;BME280;41674;52.290;-1.474;2023-05-29T04:45:20;102269.43;;;8.98;75.93
55755;BME280;41674;52.290;-1.474;2023-05-29T04:47:48;102269.17;;;9.43;73.93
55755;BME280;41674;52.290;-1.474;2023-05-29T04:50:18;102270.63;;;9.53;72.87
55755;BME280;41674;52.290;-1.474;2023-05-29T04:52:48;102271.43;;;9.41;73.95
55755;BME280;41674;52.290;-1.474;2023-05-29T04:55:17;102277.76;;;9.75;74.04
55755;BME280;41674;52.290;-1.474;2023-05-29T04:57:47;102282.05;;;8.68;75.84
55755;BME280;41674;52.290;-1.474;2023-05-29T05:00:23;102281.96;;;9.66;74.11
55755;BME280;41674;52.290;-1.474;2023-05-29T05:02:47;102281.55;;;9.90;73.49
55755;BME280;41674;52.290;-1.474;2023-05-29T05:05:16;102283.86;;;9.72;74.70
55755;BME280;41674;52.290;-1.474;2023-05-29T05:07:45;102286.03;;;9.76;74.62
55755;BME280;41674;52.290;-1.474;2023-05-29T05:10:20;102288.46;;;9.79;74.20
55755;BME280;41674;52.290;-1.474;2023-05-29T05:12:45;102288.21;;;8.37;78.58
55755;BME280;41674;52.290;-1.474;2023-05-29T05:15:14;102286.85;;;9.61;76.38
55755;BME280;41674;52.290;-1.474;2023-05-29T05:17:44;102284.67;;;9.37;78.12
55755;BME280;41674;52.290;-1.474;2023-05-29T05:20:13;102282.28;;;9.46;78.08
55755;BME280;41674;52.290;-1.474;2023-05-29T05:22:43;102279.26;;;8.50;80.59
55755;BME280;41674;52.290;-1.474;2023-05-29T05:25:13;102284.58;;;9.05;79.87
55755;BME280;41674;52.290;-1.474;2023-05-29T05:27:42;102283.28;;;9.10;79.83
55755;BME280;41674;52.290;-1.474;2023-05-29T05:30:13;102280.37;;;9.10;79.33
55755;BME280;41674;52.290;-1.474;2023-05-29T05:32:41;102281.39;;;9.63;78.14
55755;BME280;41674;52.290;-1.474;2023-05-29T05:35:11;102281.01;;;9.01;79.51
55755;BME280;41674;52.290;-1.474;2023-05-29T05:37:41;102278.53;;;9.41;76.89
55755;BME280;41674;52.290;-1.474;2023-05-29T05:40:11;102279.84;;;9.31;78.43
55755;BME280;41674;52.290;-1.474;2023-05-29T05:42:40;102280.01;;;9.56;77.78
55755;BME280;41674;52.290;-1.474;2023-05-29T05:45:10;102282.51;;;9.52;77.96
55755;BME280;41674;52.290;-1.474;2023-05-29T05:47:39;102282.89;;;9.24;79.07
55755;BME280;41674;52.290;-1.474;2023-05-29T05:50:09;102289.77;;;8.31;82.84
55755;BME280;41674;52.290;-1.474;2023-05-29T05:52:38;102287.13;;;9.38;78.04
55755;BME280;41674;52.290;-1.474;2023-05-29T05:55:07;102294.34;;;7.50;84.64
55755;BME280;41674;52.290;-1.474;2023-05-29T05:57:37;102291.03;;;9.07;81.39
55755;BME280;41674;52.290;-1.474;2023-05-29T06:00:07;102292.56;;;9.63;79.91
55755;BME280;41674;52.290;-1.474;2023-05-29T06:02:36;102294.31;;;9.50;78.75
55755;BME280;41674;52.290;-1.474;2023-05-29T06:05:06;102295.64;;;9.16;79.34
55755;BME280;41674;52.290;-1.474;2023-05-29T06:07:36;102298.17;;;9.09;79.90
55755;BME280;41674;52.290;-1.474;2023-05-29T06:10:05;102297.62;;;9.50;79.31
55755;BME280;41674;52.290;-1.474;2023-05-29T06:12:34;102299.20;;;10.15;75.87
55755;BME280;41674;52.290;-1.474;2023-05-29T06:15:04;102303.41;;;9.93;77.27
55755;BME280;41674;52.290;-1.474;2023-05-29T06:17:33;102303.90;;;10.01;76.78
55755;BME280;41674;52.290;-1.474;2023-05-29T06:20:03;102299.17;;;10.85;75.69
55755;BME280;41674;52.290;-1.474;2023-05-29T06:22:32;102304.82;;;11.02;75.36
55755;BME280;41674;52.290;-1.474;2023-05-29T06:25:02;102309.08;;;9.57;80.00
55755;BME280;41674;52.290;-1.474;2023-05-29T06:27:32;102311.38;;;9.54;79.60
55755;BME280;41674;52.290;-1.474;2023-05-29T06:30:02;102318.48;;;10.28;79.06
55755;BME280;41674;52.290;-1.474;2023-05-29T06:32:31;102318.89;;;8.95;85.12
55755;BME280;41674;52.290;-1.474;2023-05-29T06:35:01;102317.23;;;9.19;82.96
55755;BME280;41674;52.290;-1.474;2023-05-29T06:37:30;102316.18;;;9.60;83.00
55755;BME280;41674;52.290;-1.474;2023-05-29T06:40:00;102321.40;;;9.52;81.65
55755;BME280;41674;52.290;-1.474;2023-05-29T06:42:29;102321.44;;;8.98;81.05
55755;BME280;41674;52.290;-1.474;2023-05-29T06:44:58;102332.24;;;7.89;87.46
55755;BME280;41674;52.290;-1.474;2023-05-29T06:47:28;102329.82;;;9.03;84.79
55755;BME280;41674;52.290;-1.474;2023-05-29T06:49:58;102329.56;;;8.74;85.42
55755;BME280;41674;52.290;-1.474;2023-05-29T06:52:27;102326.32;;;9.78;82.06
55755;BME280;41674;52.290;-1.474;2023-05-29T06:54:57;102325.35;;;9.55;81.62
55755;BME280;41674;52.290;-1.474;2023-05-29T06:57:26;102331.84;;;8.04;87.87
55755;BME280;41674;52.290;-1.474;2023-05-29T06:59:56;102326.45;;;8.99;84.31
55755;BME280;41674;52.290;-1.474;2023-05-29T07:02:25;102326.35;;;9.76;81.73
55755;BME280;41674;52.290;-1.474;2023-05-29T07:04:55;102326.36;;;9.11;80.72
55755;BME280;41674;52.290;-1.474;2023-05-29T07:07:24;102327.76;;;8.83;85.74
55755;BME280;41674;52.290;-1.474;2023-05-29T07:09:54;102323.40;;;8.89;83.71
55755;BME280;41674;52.290;-1.474;2023-05-29T07:12:24;102326.78;;;9.48;82.55
55755;BME280;41674;52.290;-1.474;2023-05-29T07:14:53;102329.05;;;9.69;81.75
55755;BME280;41674;52.290;-1.474;2023-05-29T07:17:23;102333.37;;;9.92;79.85
55755;BME280;41674;52.290;-1.474;2023-05-29T07:19:57;102337.77;;;9.32;79.69
55755;BME280;41674;52.290;-1.474;2023-05-29T07:22:22;102337.15;;;10.22;78.66
55755;BME280;41674;52.290;-1.474;2023-05-29T07:24:52;102334.21;;;10.35;75.08
55755;BME280;41674;52.290;-1.474;2023-05-29T07:27:21;102336.71;;;10.18;76.32
55755;BME280;41674;52.290;-1.474;2023-05-29T07:29:51;102336.03;;;10.92;75.67
55755;BME280;41674;52.290;-1.474;2023-05-29T07:34:50;102337.39;;;9.34;76.79
55755;BME280;41674;52.290;-1.474;2023-05-29T07:37:20;102339.29;;;9.29;80.74
55755;BME280;41674;52.290;-1.474;2023-05-29T07:39:50;102342.20;;;10.47;77.78
55755;BME280;41674;52.290;-1.474;2023-05-29T07:42:19;102340.96;;;10.37;76.02
55755;BME280;41674;52.290;-1.474;2023-05-29T07:44:54;102337.86;;;9.74;78.79
55755;BME280;41674;52.290;-1.474;2023-05-29T07:47:18;102334.46;;;10.86;75.50
55755;BME280;41674;52.290;-1.474;2023-05-29T07:49:48;102333.05;;;9.64;78.75
55755;BME280;41674;52.290;-1.474;2023-05-29T07:52:18;102333.63;;;10.33;74.66
55755;BME280;41674;52.290;-1.474;2023-05-29T07:54:47;102338.53;;;9.89;76.45
55755;BME280;41674;52.290;-1.474;2023-05-29T07:57:17;102328.94;;;10.66;71.39
55755;BME280;41674;52.290;-1.474;2023-05-29T07:59:46;102335.05;;;10.01;73.84
55755;BME280;41674;52.290;-1.474;2023-05-29T08:02:16;102336.98;;;10.37;71.97
55755;BME280;41674;52.290;-1.474;2023-05-29T08:04:46;102341.99;;;9.26;75.66
55755;BME280;41674;52.290;-1.474;2023-05-29T08:07:15;102343.08;;;9.18;77.32
55755;BME280;41674;52.290;-1.474;2023-05-29T08:09:45;102340.85;;;9.71;75.28
55755;BME280;41674;52.290;-1.474;2023-05-29T08:12:15;102338.20;;;10.66;73.71
55755;BME280;41674;52.290;-1.474;2023-05-29T08:14:44;102338.55;;;11.20;71.25
55755;BME280;41674;52.290;-1.474;2023-05-29T08:17:14;102344.62;;;11.00;70.83
55755;BME280;41674;52.290;-1.474;2023-05-29T08:19:43;102345.28;;;9.85;76.96
55755;BME280;41674;52.290;-1.474;2023-05-29T08:22:15;102350.20;;;10.59;75.86
55755;BME280;41674;52.290;-1.474;2023-05-29T08:24:42;102349.61;;;9.74;79.74
55755;BME280;41674;52.290;-1.474;2023-05-29T08:27:12;102347.92;;;9.19;81.18
55755;BME280;41674;52.290;-1.474;2023-05-29T08:29:42;102348.36;;;9.86;76.45
55755;BME280;41674;52.290;-1.474;2023-05-29T08:32:11;102350.50;;;10.06;72.04
55755;BME280;41674;52.290;-1.474;2023-05-29T08:34:41;102350.32;;;9.93;73.14
55755;BME280;41674;52.290;-1.474;2023-05-29T08:37:10;102352.37;;;9.92;71.09
55755;BME280;41674;52.290;-1.474;2023-05-29T08:39:40;102348.48;;;9.29;72.47
55755;BME280;41674;52.290;-1.474;2023-05-29T08:42:16;102353.05;;;9.61;74.65
55755;BME280;41674;52.290;-1.474;2023-05-29T08:44:40;102353.44;;;10.26;70.22
55755;BME280;41674;52.290;-1.474;2023-05-29T08:47:11;102356.31;;;9.66;73.92
55755;BME280;41674;52.290;-1.474;2023-05-29T08:49:41;102351.27;;;10.09;72.62
55755;BME280;41674;52.290;-1.474;2023-05-29T08:52:12;102361.13;;;10.75;69.89
55755;BME280;41674;52.290;-1.474;2023-05-29T08:54:43;102357.44;;;9.77;73.67
55755;BME280;41674;52.290;-1.474;2023-05-29T08:57:08;102365.27;;;10.38;72.78
55755;BME280;41674;52.290;-1.474;2023-05-29T08:59:37;102365.57;;;9.44;75.15
55755;BME280;41674;52.290;-1.474;2023-05-29T09:02:07;102366.73;;;9.58;78.00
55755;BME280;41674;52.290;-1.474;2023-05-29T09:04:36;102368.42;;;10.38;73.72
55755;BME280;41674;52.290;-1.474;2023-05-29T09:07:06;102365.06;;;10.64;73.86
55755;BME280;41674;52.290;-1.474;2023-05-29T09:09:35;102370.40;;;10.45;75.54
55755;BME280;41674;52.290;-1.474;2023-05-29T09:12:05;102362.12;;;11.05;72.51
55755;BME280;41674;52.290;-1.474;2023-05-29T09:14:36;102363.71;;;11.18;72.43
55755;BME280;41674;52.290;-1.474;2023-05-29T09:17:05;102357.99;;;11.48;71.31
55755;BME280;41674;52.290;-1.474;2023-05-29T09:19:34;102359.76;;;11.32;69.93
55755;BME280;41674;52.290;-1.474;2023-05-29T09:22:05;102356.00;;;11.04;68.96
55755;BME280;41674;52.290;-1.474;2023-05-29T09:27:04;102350.86;;;12.06;67.62
55755;BME280;41674;52.290;-1.474;2023-05-29T09:29:33;102348.23;;;11.48;68.33
55755;BME280;41674;52.290;-1.474;2023-05-29T09:32:02;102356.28;;;11.38;69.03
55755;BME280;41674;52.290;-1.474;2023-05-29T09:34:32;102355.55;;;10.37;72.32
55755;BME280;41674;52.290;-1.474;2023-05-29T09:37:02;102362.36;;;10.08;71.78
55755;BME280;41674;52.290;-1.474;2023-05-29T09:39:31;102358.79;;;10.31;74.43
55755;BME280;41674;52.290;-1.474;2023-05-29T09:42:00;102357.61;;;10.82;72.04
55755;BME280;41674;52.290;-1.474;2023-05-29T09:44:31;102354.12;;;10.51;71.23
55755;BME280;41674;52.290;-1.474;2023-05-29T09:47:00;102353.34;;;10.82;71.53
55755;BME280;41674;52.290;-1.474;2023-05-29T09:49:31;102353.82;;;10.97;71.14
55755;BME280;41674;52.290;-1.474;2023-05-29T09:52:00;102347.34;;;11.05;71.55
55755;BME280;41674;52.290;-1.474;2023-05-29T09:54:28;102355.34;;;9.85;75.80
55755;BME280;41674;52.290;-1.474;2023-05-29T09:56:58;102356.40;;;10.73;76.13
55755;BME280;41674;52.290;-1.474;2023-05-29T09:59:28;102359.73;;;10.80;70.63
55755;BME280;41674;52.290;-1.474;2023-05-29T10:02:01;102363.65;;;10.34;71.93
55755;BME280;41674;52.290;-1.474;2023-05-29T10:04:32;102359.93;;;10.15;73.22
55755;BME280;41674;52.290;-1.474;2023-05-29T10:07:07;102362.32;;;10.65;72.48
55755;BME280;41674;52.290;-1.474;2023-05-29T10:09:30;102357.20;;;10.96;70.47
55755;BME280;41674;52.290;-1.474;2023-05-29T10:11:55;102355.30;;;10.81;70.11
55755;BME280;41674;52.290;-1.474;2023-05-29T10:14:29;102358.62;;;10.33;70.78
55755;BME280;41674;52.290;-1.474;2023-05-29T10:16:56;102358.06;;;9.87;75.04
55755;BME280;41674;52.290;-1.474;2023-05-29T10:19:25;102361.53;;;9.45;74.09
55755;BME280;41674;52.290;-1.474;2023-05-29T10:21:54;102362.55;;;10.80;73.26
55755;BME280;41674;52.290;-1.474;2023-05-29T10:24:23;102363.68;;;10.07;74.86
55755;BME280;41674;52.290;-1.474;2023-05-29T10:26:53;102368.45;;;10.45;73.47
55755;BME280;41674;52.290;-1.474;2023-05-29T10:32:12;102362.11;;;10.36;69.68
55755;BME280;41674;52.290;-1.474;2023-05-29T10:34:30;102362.93;;;11.09;71.10
55755;BME280;41674;52.290;-1.474;2023-05-29T10:37:00;102362.57;;;10.98;71.42
55755;BME280;41674;52.290;-1.474;2023-05-29T10:39:21;102355.14;;;10.81;68.98
55755;BME280;41674;52.290;-1.474;2023-05-29T10:41:50;102353.74;;;11.47;67.17
55755;BME280;41674;52.290;-1.474;2023-05-29T10:44:37;102362.20;;;10.54;71.87
55755;BME280;41674;52.290;-1.474;2023-05-29T10:47:03;102361.73;;;11.74;69.80
55755;BME280;41674;52.290;-1.474;2023-05-29T10:49:20;102359.97;;;12.29;67.03
55755;BME280;41674;52.290;-1.474;2023-05-29T10:51:53;102365.39;;;11.50;68.40
55755;BME280;41674;52.290;-1.474;2023-05-29T10:54:21;102361.55;;;11.48;66.76
55755;BME280;41674;52.290;-1.474;2023-05-29T10:56:57;102357.92;;;12.02;64.40
55755;BME280;41674;52.290;-1.474;2023-05-29T10:59:20;102351.89;;;12.13;61.88
55755;BME280;41674;52.290;-1.474;2023-05-29T11:01:46;102349.46;;;11.21;64.61
55755;BME280;41674;52.290;-1.474;2023-05-29T11:04:26;102349.72;;;12.71;62.72
55755;BME280;41674;52.290;-1.474;2023-05-29T11:06:46;102349.72;;;12.00;61.62
55755;BME280;41674;52.290;-1.474;2023-05-29T11:09:28;102354.38;;;12.12;63.31
55755;BME280;41674;52.290;-1.474;2023-05-29T11:14:14;102347.63;;;11.98;61.56
55755;BME280;41674;52.290;-1.474;2023-05-29T11:16:44;102341.61;;;12.10;63.09
55755;BME280;41674;52.290;-1.474;2023-05-29T11:19:14;102340.94;;;12.77;63.10
55755;BME280;41674;52.290;-1.474;2023-05-29T11:21:56;102339.86;;;12.47;66.00
55755;BME280;41674;52.290;-1.474;2023-05-29T11:24:20;102334.02;;;13.09;64.66
55755;BME280;41674;52.290;-1.474;2023-05-29T11:26:47;102339.33;;;12.67;63.70
55755;BME280;41674;52.290;-1.474;2023-05-29T11:29:11;102343.06;;;12.68;65.29
55755;BME280;41674;52.290;-1.474;2023-05-29T11:31:41;102343.60;;;12.87;64.43
55755;BME280;41674;52.290;-1.474;2023-05-29T11:34:14;102338.78;;;11.50;66.02
55755;BME280;41674;52.290;-1.474;2023-05-29T11:36:43;102341.11;;;12.57;66.04
55755;BME280;41674;52.290;-1.474;2023-05-29T11:39:15;102322.57;;;11.67;66.84
55755;BME280;41674;52.290;-1.474;2023-05-29T11:41:40;102338.04;;;12.68;63.30
55755;BME280;41674;52.290;-1.474;2023-05-29T11:44:15;102332.26;;;13.19;63.42
55755;BME280;41674;52.290;-1.474;2023-05-29T11:46:38;102331.30;;;13.75;60.60
55755;BME280;41674;52.290;-1.474;2023-05-29T11:49:08;102343.65;;;12.60;64.84
55755;BME280;41674;52.290;-1.474;2023-05-29T11:51:37;102338.01;;;12.96;66.92
55755;BME280;41674;52.290;-1.474;2023-05-29T11:54:07;102325.19;;;13.22;64.69
55755;BME280;41674;52.290;-1.474;2023-05-29T11:56:37;102324.33;;;14.16;60.06
55755;BME280;41674;52.290;-1.474;2023-05-29T11:59:11;102323.43;;;13.17;64.34
55755;BME280;41674;52.290;-1.474;2023-05-29T12:01:36;102323.76;;;13.32;61.47
55755;BME280;41674;52.290;-1.474;2023-05-29T12:04:13;102323.60;;;13.12;61.73
55755;BME280;41674;52.290;-1.474;2023-05-29T12:06:35;102317.79;;;13.23;60.63
55755;BME280;41674;52.290;-1.474;2023-05-29T12:09:04;102321.89;;;12.57;67.21
55755;BME280;41674;52.290;-1.474;2023-05-29T12:11:34;102316.17;;;13.64;62.08
55755;BME280;41674;52.290;-1.474;2023-05-29T12:14:03;102314.71;;;12.98;60.24
55755;BME280;41674;52.290;-1.474;2023-05-29T12:16:34;102308.61;;;13.28;59.16
55755;BME280;41674;52.290;-1.474;2023-05-29T12:19:03;102311.87;;;13.34;59.11
55755;BME280;41674;52.290;-1.474;2023-05-29T12:21:32;102301.99;;;14.24;58.42
55755;BME280;41674;52.290;-1.474;2023-05-29T12:24:02;102305.26;;;14.61;60.90
55755;BME280;41674;52.290;-1.474;2023-05-29T12:26:31;102298.12;;;15.87;58.06
55755;BME280;41674;52.290;-1.474;2023-05-29T12:29:03;102298.29;;;15.41;55.87
55755;BME280;41674;52.290;-1.474;2023-05-29T12:31:30;102296.08;;;15.17;57.41
55755;BME280;41674;52.290;-1.474;2023-05-29T12:34:01;102294.80;;;14.93;58.54
55755;BME280;41674;52.290;-1.474;2023-05-29T12:36:29;102291.16;;;15.71;54.83
55755;BME280;41674;52.290;-1.474;2023-05-29T12:38:59;102300.26;;;15.86;52.96
55755;BME280;41674;52.290;-1.474;2023-05-29T12:41:29;102298.59;;;14.82;56.66
55755;BME280;41674;52.290;-1.474;2023-05-29T12:43:58;102296.44;;;16.44;53.03
55755;BME280;41674;52.290;-1.474;2023-05-29T12:46:34;102297.84;;;16.57;55.43
55755;BME280;41674;52.290;-1.474;2023-05-29T12:48:57;102298.34;;;16.87;53.89
55755;BME280;41674;52.290;-1.474;2023-05-29T12:51:27;102303.81;;;16.10;52.20
55755;BME280;41674;52.290;-1.474;2023-05-29T12:53:56;102301.82;;;16.94;51.75
55755;BME280;41674;52.290;-1.474;2023-05-29T12:58:55;102303.71;;;16.05;53.92
55755;BME280;41674;52.290;-1.474;2023-05-29T13:01:25;102296.33;;;16.82;52.80
55755;BME280;41674;52.290;-1.474;2023-05-29T13:03:54;102292.98;;;15.33;54.41
55755;BME280;41674;52.290;-1.474;2023-05-29T13:06:24;102291.60;;;16.93;52.16
55755;BME280;41674;52.290;-1.474;2023-05-29T13:08:53;102287.29;;;17.25;50.49
55755;BME280;41674;52.290;-1.474;2023-05-29T13:11:23;102288.99;;;17.22;49.53
55755;BME280;41674;52.290;-1.474;2023-05-29T13:13:53;102287.56;;;17.87;49.68